Time;durP1;ratioP1;P1;durP2;ratioP2;P2;SDS_P1;SDS_P2;PMS_P1;PMS_P2;Temp;Humidity;BMP_temperature;BMP_pressure;BME280_temperature;BME280_humidity;BME280_pressure;Samples;Min_cycle;Max_cycle;Signal;HPM_P1;HPM_P2
2021/12/12 00:01:25;;;;;;;15.53;13.93;;;;;;;;;;5108539;28;20665;-64
2021/12/12 00:04:16;;;;;;;15.40;13.53;;;;;;;;;;5101094;28;20226;-64
2021/12/12 00:07:07;;;;;;;14.40;12.90;;;;;;;;;;5094248;28;20214;-64
2021/12/12 00:10:03;;;;;;;14.30;12.90;;;;;;;;;;5103101;28;20257;-64
2021/12/12 00:12:54;;;;;;;14.30;12.90;;;;;;;;;;5104548;28;20572;-64
2021/12/12 00:15:41;;;;;;;14.17;12.87;;;;;;;;;;5091845;28;20234;-64
2021/12/12 00:18:29;;;;;;;14.27;12.97;;;;;;;;;;5101629;28;20239;-64
2021/12/12 00:21:21;;;;;;;13.80;12.43;;;;;;;;;;5088537;28;20348;-64
2021/12/12 00:24:10;;;;;;;12.60;11.43;;;;;;;;;;5081967;28;20304;-64
2021/12/12 00:26:58;;;;;;;13.73;12.33;;;;;;;;;;5080931;28;20295;-65
2021/12/12 00:29:45;;;;;;;12.80;11.60;;;;;;;;;;5080227;28;20304;-64
2021/12/12 00:32:35;;;;;;;12.80;11.60;;;;;;;;;;5081309;28;20809;-65
2021/12/12 00:35:24;;;;;;;12.97;11.67;;;;;;;;;;5090390;28;20206;-64
2021/12/12 00:38:15;;;;;;;12.50;11.30;;;;;;;;;;5079542;28;20245;-65
2021/12/12 00:41:06;;;;;;;12.63;11.43;;;;;;;;;;5085236;28;20238;-65
2021/12/12 00:43:53;;;;;;;12.10;11.00;;;;;;;;;;5081783;28;20686;-64
2021/12/12 00:46:40;;;;;;;11.53;10.43;;;;;;;;;;5086796;28;20295;-64
2021/12/12 00:49:29;;;;;;;13.30;12.00;;;;;;;;;;5089731;28;20280;-64
2021/12/12 00:52:19;;;;;;;12.10;11.00;;;;;;;;;;5084140;28;20214;-64
2021/12/12 00:55:07;;;;;;;11.23;10.23;;;;;;;;;;5076352;28;20344;-64
2021/12/12 00:57:54;;;;;;;11.80;10.70;;;;;;;;;;5083947;28;20344;-64
2021/12/12 01:00:48;;;;;;;11.90;10.80;;;;;;;;;;5086142;28;20346;-64
2021/12/12 01:03:39;;;;;;;11.73;10.63;;;;;;;;;;5084997;28;20358;-65
2021/12/12 01:06:27;;;;;;;12.03;11.03;;;;;;;;;;5079859;28;20266;-65
2021/12/12 01:09:19;;;;;;;11.63;10.53;;;;;;;;;;5075438;28;20707;-64
2021/12/12 01:12:10;;;;;;;11.17;10.17;;;;;;;;;;5080605;28;20224;-64
2021/12/12 01:15:07;;;;;;;11.27;10.17;;;;;;;;;;5087256;28;20685;-64
2021/12/12 01:17:57;;;;;;;11.27;10.27;;;;;;;;;;5089065;28;20666;-64
2021/12/12 01:20:50;;;;;;;11.03;10.00;;;;;;;;;;5083127;28;20313;-65
2021/12/12 01:23:40;;;;;;;11.27;10.17;;;;;;;;;;5083532;28;20203;-64
2021/12/12 01:26:29;;;;;;;10.70;9.80;;;;;;;;;;5082789;28;20592;-64
2021/12/12 01:29:17;;;;;;;11.20;10.20;;;;;;;;;;5080725;28;20234;-64
2021/12/12 01:32:06;;;;;;;11.03;10.03;;;;;;;;;;5085343;28;20288;-64
2021/12/12 01:34:54;;;;;;;10.33;9.43;;;;;;;;;;5080657;28;20207;-64
2021/12/12 01:37:51;;;;;;;10.30;9.40;;;;;;;;;;5075517;28;20207;-64
2021/12/12 01:40:40;;;;;;;10.27;9.37;;;;;;;;;;5074640;28;20245;-64
2021/12/12 01:43:35;;;;;;;11.00;10.00;;;;;;;;;;5075252;28;20641;-64
2021/12/12 01:46:24;;;;;;;10.33;9.33;;;;;;;;;;5082789;28;20572;-64
2021/12/12 01:49:15;;;;;;;10.17;9.27;;;;;;;;;;5084412;28;21333;-64
2021/12/12 01:52:04;;;;;;;10.30;9.37;;;;;;;;;;5074234;28;20211;-64
2021/12/12 01:54:57;;;;;;;10.50;9.60;;;;;;;;;;5074848;28;20211;-64
2021/12/12 01:57:44;;;;;;;10.80;9.83;;;;;;;;;;5079700;28;20219;-65
2021/12/12 02:00:36;;;;;;;10.43;9.53;;;;;;;;;;5083191;28;20288;-64
2021/12/12 02:03:26;;;;;;;10.10;9.20;;;;;;;;;;5085957;28;20332;-64
2021/12/12 02:06:16;;;;;;;9.93;9.13;;;;;;;;;;5087043;28;20192;-64
2021/12/12 02:09:05;;;;;;;9.77;8.87;;;;;;;;;;5084591;28;20350;-64
2021/12/12 02:11:55;;;;;;;9.67;8.77;;;;;;;;;;5076053;28;20207;-64
2021/12/12 02:14:43;;;;;;;9.87;9.07;;;;;;;;;;5079197;28;20341;-64
2021/12/12 02:17:39;;;;;;;9.80;9.00;;;;;;;;;;5081406;28;20237;-64
2021/12/12 02:20:34;;;;;;;9.40;8.63;;;;;;;;;;5089456;28;20226;-64
2021/12/12 02:23:31;;;;;;;9.57;8.77;;;;;;;;;;5103845;28;20619;-64
2021/12/12 02:35:53;;;;;;;8.50;7.80;;;;;;;;;;5109486;28;20236;-64
2021/12/12 02:38:42;;;;;;;9.03;8.33;;;;;;;;;;5099942;28;20677;-64
2021/12/12 02:41:29;;;;;;;8.53;7.83;;;;;;;;;;5107743;28;20205;-64
2021/12/12 02:44:18;;;;;;;9.30;8.53;;;;;;;;;;5102000;28;20287;-64
2021/12/12 02:47:12;;;;;;;8.93;8.13;;;;;;;;;;5104123;28;20659;-64
2021/12/12 02:50:10;;;;;;;9.03;8.33;;;;;;;;;;5106223;28;20218;-64
2021/12/12 02:53:07;;;;;;;8.73;8.03;;;;;;;;;;5099692;28;20637;-64
2021/12/12 02:56:00;;;;;;;9.27;8.47;;;;;;;;;;5091629;28;20686;-64
2021/12/12 02:58:48;;;;;;;9.30;8.50;;;;;;;;;;5095561;28;20662;-65
2021/12/12 03:01:38;;;;;;;8.83;8.13;;;;;;;;;;5103218;28;20214;-64
2021/12/12 03:04:26;;;;;;;8.77;8.07;;;;;;;;;;5107869;28;20248;-64
2021/12/12 03:07:13;;;;;;;8.87;8.07;;;;;;;;;;5102256;28;20315;-64
2021/12/12 03:10:07;;;;;;;8.80;8.10;;;;;;;;;;5095439;28;20450;-65
2021/12/12 03:12:56;;;;;;;9.00;8.20;;;;;;;;;;5104637;28;20650;-64
2021/12/12 03:15:45;;;;;;;8.27;7.60;;;;;;;;;;5104334;28;20246;-64
2021/12/12 03:18:39;;;;;;;8.37;7.77;;;;;;;;;;5104170;28;20198;-64
2021/12/12 03:21:32;;;;;;;8.53;7.83;;;;;;;;;;5101929;28;20235;-64
2021/12/12 03:24:21;;;;;;;8.40;7.70;;;;;;;;;;5103197;28;20614;-65
2021/12/12 03:27:08;;;;;;;8.40;7.70;;;;;;;;;;5100138;27;20211;-65
2021/12/12 03:29:57;;;;;;;8.20;7.60;;;;;;;;;;5109220;28;20695;-64
2021/12/12 03:32:44;;;;;;;8.80;8.10;;;;;;;;;;5097880;28;20676;-64
2021/12/12 03:35:32;;;;;;;8.93;8.23;;;;;;;;;;5099020;28;20243;-64
2021/12/12 03:38:19;;;;;;;8.40;7.73;;;;;;;;;;5107926;28;20657;-64
2021/12/12 03:41:11;;;;;;;8.67;7.97;;;;;;;;;;5100457;28;20214;-64
2021/12/12 03:44:01;;;;;;;8.63;7.93;;;;;;;;;;5108132;28;20593;-64
2021/12/12 03:46:52;;;;;;;8.07;7.40;;;;;;;;;;5097072;28;20281;-64
2021/12/12 03:49:40;;;;;;;7.90;7.30;;;;;;;;;;5095869;28;20761;-64
2021/12/12 03:52:28;;;;;;;7.90;7.30;;;;;;;;;;5095685;28;20280;-64
2021/12/12 03:55:16;;;;;;;8.23;7.57;;;;;;;;;;5093127;28;20242;-64
2021/12/12 03:58:08;;;;;;;8.07;7.47;;;;;;;;;;5091484;28;20586;-64
2021/12/12 04:01:00;;;;;;;8.00;7.40;;;;;;;;;;5097376;28;20684;-65
2021/12/12 04:03:51;;;;;;;7.40;6.90;;;;;;;;;;5104438;28;20249;-64
2021/12/12 04:06:39;;;;;;;7.23;6.70;;;;;;;;;;5104377;28;20195;-64
2021/12/12 04:09:27;;;;;;;8.17;7.47;;;;;;;;;;5101514;28;20213;-66
2021/12/12 04:12:17;;;;;;;7.10;6.60;;;;;;;;;;5105633;28;20357;-64
2021/12/12 04:15:04;;;;;;;7.70;7.07;;;;;;;;;;5098879;28;20358;-64
2021/12/12 04:17:52;;;;;;;7.50;7.00;;;;;;;;;;5092415;28;20199;-64
2021/12/12 04:20:41;;;;;;;6.73;6.23;;;;;;;;;;5095468;28;20218;-64
2021/12/12 04:23:28;;;;;;;7.00;6.50;;;;;;;;;;5083325;28;20628;-64
2021/12/12 04:26:18;;;;;;;6.77;6.27;;;;;;;;;;5072850;28;20670;-64
2021/12/12 04:29:09;;;;;;;6.87;6.37;;;;;;;;;;5075122;28;20207;-64
2021/12/12 04:31:59;;;;;;;7.07;6.57;;;;;;;;;;5086484;28;20213;-64
2021/12/12 04:34:49;;;;;;;6.80;6.30;;;;;;;;;;5078770;28;20317;-64
2021/12/12 04:37:38;;;;;;;6.87;6.37;;;;;;;;;;5074705;28;20290;-64
2021/12/12 04:40:28;;;;;;;7.03;6.43;;;;;;;;;;5085285;28;20194;-64
2021/12/12 04:43:15;;;;;;;7.63;6.93;;;;;;;;;;5082121;28;20297;-64
2021/12/12 04:46:09;;;;;;;7.57;6.97;;;;;;;;;;5085973;28;20673;-64
2021/12/12 04:52:06;;;;;;;9.97;8.80;;;;;;;;;;5071643;28;20286;-64
2021/12/12 04:55:02;;;;;;;9.30;8.13;;;;;;;;;;5083510;28;20206;-64
2021/12/12 04:57:58;;;;;;;9.87;8.53;;;;;;;;;;5080386;28;20252;-64
2021/12/12 05:00:50;;;;;;;9.37;8.20;;;;;;;;;;5070959;28;20245;-64
2021/12/12 05:03:49;;;;;;;10.87;9.17;;;;;;;;;;5078886;28;20353;-64
2021/12/12 05:06:42;;;;;;;10.20;8.87;;;;;;;;;;5073582;28;20285;-64
2021/12/12 05:09:33;;;;;;;11.00;9.17;;;;;;;;;;5078764;28;20276;-64
2021/12/12 05:12:28;;;;;;;10.50;8.33;;;;;;;;;;5076804;28;20207;-65
2021/12/12 05:15:20;;;;;;;10.80;8.97;;;;;;;;;;5070970;28;20211;-64
2021/12/12 05:18:11;;;;;;;10.33;8.20;;;;;;;;;;5073247;28;20219;-64
2021/12/12 05:21:02;;;;;;;11.13;9.13;;;;;;;;;;5088200;28;20235;-64
2021/12/12 05:23:52;;;;;;;10.47;8.87;;;;;;;;;;5081638;28;20206;-64
2021/12/12 05:26:43;;;;;;;13.37;9.33;;;;;;;;;;5078268;28;20671;-64
2021/12/12 05:29:36;;;;;;;9.87;8.87;;;;;;;;;;5086295;28;20226;-64
2021/12/12 05:32:25;;;;;;;11.80;8.60;;;;;;;;;;5081814;28;20360;-65
2021/12/12 05:35:15;;;;;;;11.60;8.97;;;;;;;;;;5076195;28;20289;-64
2021/12/12 05:38:03;;;;;;;11.37;9.00;;;;;;;;;;5080052;28;20260;-64
2021/12/12 05:40:51;;;;;;;10.93;8.77;;;;;;;;;;5079922;28;20307;-64
2021/12/12 05:43:39;;;;;;;9.40;8.40;;;;;;;;;;5097615;28;20289;-64
2021/12/12 05:46:27;;;;;;;9.20;8.17;;;;;;;;;;5089969;28;20207;-64
2021/12/12 05:49:14;;;;;;;9.07;8.13;;;;;;;;;;5074322;28;20301;-64
2021/12/12 05:52:01;;;;;;;8.83;8.03;;;;;;;;;;5082551;28;20712;-64
2021/12/12 05:54:50;;;;;;;9.33;8.23;;;;;;;;;;5074206;28;20738;-64
2021/12/12 05:57:38;;;;;;;9.03;8.13;;;;;;;;;;5083567;28;20210;-64
2021/12/12 06:00:29;;;;;;;8.87;8.00;;;;;;;;;;5094135;28;20270;-64
2021/12/12 06:03:21;;;;;;;8.03;7.23;;;;;;;;;;5087060;28;20340;-64
2021/12/12 06:06:11;;;;;;;8.50;7.70;;;;;;;;;;5084686;28;20226;-64
2021/12/12 06:09:00;;;;;;;8.20;7.40;;;;;;;;;;5083991;28;20217;-65
2021/12/12 06:11:51;;;;;;;8.00;7.27;;;;;;;;;;5080720;28;20207;-64
2021/12/12 06:14:39;;;;;;;8.17;7.30;;;;;;;;;;5079021;28;20245;-64
2021/12/12 06:17:26;;;;;;;7.37;6.73;;;;;;;;;;5086857;28;20239;-64
2021/12/12 06:20:16;;;;;;;7.00;6.40;;;;;;;;;;5086981;28;20381;-65
2021/12/12 06:23:04;;;;;;;7.40;6.70;;;;;;;;;;5071740;28;20286;-64
2021/12/12 06:25:52;;;;;;;7.53;6.83;;;;;;;;;;5080560;28;20671;-64
2021/12/12 06:28:41;;;;;;;6.40;5.90;;;;;;;;;;5075140;28;20199;-65
2021/12/12 06:31:28;;;;;;;6.70;6.13;;;;;;;;;;5082113;28;20259;-65
2021/12/12 06:34:16;;;;;;;6.87;6.37;;;;;;;;;;5083497;28;20281;-64
2021/12/12 06:37:05;;;;;;;6.50;6.00;;;;;;;;;;5089209;28;20307;-64
2021/12/12 06:39:53;;;;;;;6.83;6.27;;;;;;;;;;5080817;28;20249;-64
2021/12/12 06:42:40;;;;;;;6.30;5.80;;;;;;;;;;5089412;28;20283;-64
2021/12/12 06:45:28;;;;;;;6.77;6.23;;;;;;;;;;5078842;28;20210;-64
2021/12/12 06:48:16;;;;;;;6.60;6.10;;;;;;;;;;5066863;28;20681;-65
2021/12/12 06:51:04;;;;;;;6.67;6.17;;;;;;;;;;5078629;28;20222;-64
2021/12/12 06:53:53;;;;;;;6.13;5.63;;;;;;;;;;5083162;28;20235;-65
2021/12/12 06:56:40;;;;;;;6.83;6.30;;;;;;;;;;5072648;28;20321;-65
2021/12/12 06:59:29;;;;;;;6.37;5.87;;;;;;;;;;5078611;28;20199;-64
2021/12/12 07:02:18;;;;;;;6.63;6.13;;;;;;;;;;5071615;28;20301;-64
2021/12/12 07:05:07;;;;;;;6.80;6.30;;;;;;;;;;5078349;28;20376;-64
2021/12/12 07:07:55;;;;;;;6.20;5.80;;;;;;;;;;5084665;28;20335;-65
2021/12/12 07:10:44;;;;;;;6.47;5.93;;;;;;;;;;5074189;28;20520;-64
2021/12/12 07:13:31;;;;;;;7.00;6.40;;;;;;;;;;5076547;28;20226;-65
2021/12/12 07:16:20;;;;;;;6.10;5.70;;;;;;;;;;5083614;28;20238;-64
2021/12/12 07:19:08;;;;;;;6.57;6.07;;;;;;;;;;5075703;28;20198;-65
2021/12/12 07:21:59;;;;;;;6.63;6.13;;;;;;;;;;5088663;28;20718;-64
2021/12/12 07:24:47;;;;;;;6.50;6.00;;;;;;;;;;5098607;28;20220;-64
2021/12/12 07:27:35;;;;;;;6.40;5.90;;;;;;;;;;5104751;28;20788;-64
2021/12/12 07:30:22;;;;;;;6.30;5.80;;;;;;;;;;5093811;28;20226;-64
2021/12/12 07:33:10;;;;;;;6.53;6.03;;;;;;;;;;5101724;28;20222;-64
2021/12/12 07:35:59;;;;;;;6.00;5.60;;;;;;;;;;5109598;28;20198;-65
2021/12/12 07:38:49;;;;;;;6.13;5.63;;;;;;;;;;5101958;28;20749;-64
2021/12/12 07:41:39;;;;;;;6.30;5.90;;;;;;;;;;5106207;28;20683;-64
2021/12/12 07:44:31;;;;;;;6.00;5.60;;;;;;;;;;5095561;28;20244;-65
2021/12/12 07:47:18;;;;;;;6.10;5.70;;;;;;;;;;5098969;28;20206;-64
2021/12/12 07:50:09;;;;;;;6.20;5.80;;;;;;;;;;5092892;28;20263;-64
2021/12/12 07:52:56;;;;;;;6.07;5.67;;;;;;;;;;5100724;28;20204;-64
2021/12/12 07:55:45;;;;;;;6.00;5.60;;;;;;;;;;5092481;28;20238;-64
2021/12/12 07:58:32;;;;;;;6.57;6.07;;;;;;;;;;5105244;28;20293;-64
2021/12/12 08:01:22;;;;;;;6.40;5.90;;;;;;;;;;5104276;28;20305;-65
2021/12/12 08:04:10;;;;;;;5.80;5.33;;;;;;;;;;5100675;28;20230;-65
2021/12/12 08:07:00;;;;;;;6.07;5.67;;;;;;;;;;5100126;28;20208;-64
2021/12/12 08:09:48;;;;;;;5.90;5.50;;;;;;;;;;5092250;28;20241;-65
2021/12/12 08:12:35;;;;;;;5.63;5.33;;;;;;;;;;5098727;28;20230;-64
2021/12/12 08:15:26;;;;;;;5.83;5.43;;;;;;;;;;5094139;28;20618;-64
2021/12/12 08:18:16;;;;;;;5.77;5.37;;;;;;;;;;5105134;28;20754;-64
2021/12/12 08:21:04;;;;;;;5.90;5.50;;;;;;;;;;5102113;28;20222;-65
2021/12/12 08:23:52;;;;;;;5.70;5.30;;;;;;;;;;5091786;28;20670;-64
2021/12/12 08:26:41;;;;;;;5.73;5.33;;;;;;;;;;5098214;28;20298;-64
2021/12/12 08:29:28;;;;;;;5.37;5.07;;;;;;;;;;5106760;28;20279;-64
2021/12/12 08:32:15;;;;;;;5.83;5.43;;;;;;;;;;5100811;28;20367;-64
2021/12/12 08:35:05;;;;;;;5.67;5.27;;;;;;;;;;5106188;28;20572;-64
2021/12/12 08:37:52;;;;;;;5.93;5.43;;;;;;;;;;5104763;28;20241;-63
2021/12/12 08:40:47;;;;;;;5.60;5.20;;;;;;;;;;5097446;28;20293;-66
2021/12/12 08:43:35;;;;;;;5.43;5.10;;;;;;;;;;5108160;28;20207;-65
2021/12/12 08:46:24;;;;;;;5.77;5.37;;;;;;;;;;5100096;28;20250;-64
2021/12/12 08:49:12;;;;;;;5.50;5.10;;;;;;;;;;5105262;28;20996;-64
2021/12/12 08:52:04;;;;;;;5.37;5.07;;;;;;;;;;5095892;28;20321;-64
2021/12/12 08:54:53;;;;;;;5.43;5.03;;;;;;;;;;5097552;28;20214;-64
2021/12/12 08:57:46;;;;;;;5.00;4.70;;;;;;;;;;5107510;28;20214;-64
2021/12/12 09:00:36;;;;;;;5.63;5.23;;;;;;;;;;5096054;28;20210;-64
2021/12/12 09:03:28;;;;;;;5.10;4.80;;;;;;;;;;5094504;28;20328;-64
2021/12/12 09:06:17;;;;;;;4.70;4.40;;;;;;;;;;5104445;28;20646;-64
2021/12/12 09:09:10;;;;;;;5.00;4.70;;;;;;;;;;5105734;28;20737;-64
2021/12/12 09:12:05;;;;;;;5.37;5.07;;;;;;;;;;5109245;28;20223;-64
2021/12/12 09:14:56;;;;;;;5.33;5.00;;;;;;;;;;5102141;28;20226;-64
2021/12/12 09:17:45;;;;;;;5.13;4.83;;;;;;;;;;5096321;28;20258;-64
2021/12/12 09:20:47;;;;;;;5.50;5.10;;;;;;;;;;5105477;28;20262;-64
2021/12/12 09:23:38;;;;;;;5.07;4.77;;;;;;;;;;5105213;28;20209;-64
2021/12/12 09:26:28;;;;;;;5.30;5.00;;;;;;;;;;5110162;28;20210;-65
2021/12/12 09:29:21;;;;;;;5.43;4.93;;;;;;;;;;5103864;28;20250;-64
2021/12/12 09:32:12;;;;;;;5.50;5.10;;;;;;;;;;5111201;28;20218;-64
2021/12/12 09:35:07;;;;;;;5.20;4.80;;;;;;;;;;5100323;27;20222;-64
2021/12/12 09:37:57;;;;;;;5.30;4.90;;;;;;;;;;5098624;28;20210;-64
2021/12/12 09:41:10;;;;;;;4.80;4.50;;;;;;;;;;5109906;27;20199;-64
2021/12/12 09:44:20;;;;;;;5.07;4.70;;;;;;;;;;5106676;28;20355;-64
2021/12/12 09:47:28;;;;;;;4.80;4.50;;;;;;;;;;5097160;28;20243;-64
2021/12/12 09:53:58;;;;;;;5.33;4.97;;;;;;;;;;5102630;28;20241;-64
2021/12/12 09:56:51;;;;;;;5.30;5.00;;;;;;;;;;5104896;28;20207;-64
2021/12/12 10:00:06;;;;;;;5.43;5.13;;;;;;;;;;5104789;28;20199;-64
2021/12/12 10:03:08;;;;;;;5.73;5.33;;;;;;;;;;5100964;28;20226;-64
2021/12/12 10:06:03;;;;;;;5.93;5.53;;;;;;;;;;5103486;28;20763;-65
2021/12/12 10:08:58;;;;;;;6.67;6.17;;;;;;;;;;5103838;28;20218;-64
2021/12/12 10:11:49;;;;;;;7.13;6.63;;;;;;;;;;5098286;28;20310;-64
2021/12/12 10:14:43;;;;;;;7.70;7.10;;;;;;;;;;5109935;28;20285;-64
2021/12/12 10:17:38;;;;;;;7.23;6.70;;;;;;;;;;5100751;28;20210;-64
2021/12/12 10:20:32;;;;;;;10.47;6.93;;;;;;;;;;5101341;28;20406;-64
2021/12/12 10:23:27;;;;;;;8.13;7.33;;;;;;;;;;5099201;28;20203;-64
2021/12/12 10:26:21;;;;;;;7.60;7.00;;;;;;;;;;5103807;28;20207;-64
2021/12/12 10:29:14;;;;;;;6.87;6.37;;;;;;;;;;5108891;28;20214;-64
2021/12/12 10:32:11;;;;;;;6.97;6.47;;;;;;;;;;5100704;28;20361;-64
2021/12/12 10:35:07;;;;;;;7.33;6.73;;;;;;;;;;5097321;28;20709;-64
2021/12/12 10:37:58;;;;;;;6.90;6.40;;;;;;;;;;5101200;27;20333;-64
2021/12/12 10:40:49;;;;;;;7.23;6.63;;;;;;;;;;5088912;28;20303;-64
2021/12/12 10:43:39;;;;;;;6.27;5.87;;;;;;;;;;5098379;28;20659;-64
2021/12/12 10:46:34;;;;;;;6.67;6.17;;;;;;;;;;5101178;28;20218;-64
2021/12/12 10:49:27;;;;;;;6.27;5.87;;;;;;;;;;5091600;28;20355;-64
2021/12/12 10:52:20;;;;;;;5.93;5.43;;;;;;;;;;5103324;28;20220;-64
2021/12/12 10:55:13;;;;;;;6.00;5.50;;;;;;;;;;5104082;28;20690;-65
2021/12/12 10:58:06;;;;;;;5.67;5.27;;;;;;;;;;5100908;28;20741;-64
2021/12/12 11:00:57;;;;;;;5.53;5.17;;;;;;;;;;5102979;28;20272;-64
2021/12/12 11:03:49;;;;;;;5.47;5.10;;;;;;;;;;5101242;28;20707;-64
2021/12/12 11:06:38;;;;;;;5.70;5.20;;;;;;;;;;5097398;28;20303;-64
2021/12/12 11:09:34;;;;;;;6.00;5.60;;;;;;;;;;5098219;28;20720;-65
2021/12/12 11:12:34;;;;;;;5.20;4.80;;;;;;;;;;5102103;28;20677;-64
2021/12/12 11:15:25;;;;;;;4.80;4.40;;;;;;;;;;5100104;28;20242;-64
2021/12/12 11:18:16;;;;;;;5.27;4.87;;;;;;;;;;5109597;28;20288;-64
2021/12/12 11:21:09;;;;;;;5.07;4.77;;;;;;;;;;5101438;28;20237;-65
2021/12/12 11:23:59;;;;;;;5.33;4.97;;;;;;;;;;5102251;28;20289;-65
2021/12/12 11:26:54;;;;;;;5.33;4.93;;;;;;;;;;5094887;28;20295;-64
2021/12/12 11:29:45;;;;;;;5.20;4.80;;;;;;;;;;5099641;28;20796;-64
2021/12/12 11:32:35;;;;;;;5.20;4.80;;;;;;;;;;5107690;28;20712;-64
2021/12/12 11:35:25;;;;;;;5.20;4.90;;;;;;;;;;5100813;28;20678;-64
2021/12/12 11:38:17;;;;;;;5.40;5.00;;;;;;;;;;5107476;28;20210;-64
2021/12/12 11:41:08;;;;;;;4.73;4.40;;;;;;;;;;5103983;28;21408;-64
2021/12/12 11:44:04;;;;;;;4.87;4.47;;;;;;;;;;5095578;28;20261;-64
2021/12/12 11:46:57;;;;;;;4.73;4.43;;;;;;;;;;5098227;28;20292;-64
2021/12/12 11:49:54;;;;;;;4.87;4.57;;;;;;;;;;5101159;28;20676;-64
2021/12/12 11:52:54;;;;;;;4.30;4.07;;;;;;;;;;5107503;28;20252;-64
2021/12/12 11:55:45;;;;;;;4.27;4.03;;;;;;;;;;5096117;28;20292;-64
2021/12/12 11:58:37;;;;;;;4.27;3.97;;;;;;;;;;5098760;28;20215;-64
2021/12/12 12:01:32;;;;;;;4.43;4.13;;;;;;;;;;5108496;28;20203;-64
2021/12/12 12:04:33;;;;;;;4.13;3.93;;;;;;;;;;5098566;28;20236;-64
2021/12/12 12:07:25;;;;;;;4.50;4.20;;;;;;;;;;5085312;28;20221;-64
2021/12/12 12:10:18;;;;;;;4.10;3.80;;;;;;;;;;5100668;28;20283;-64
2021/12/12 12:13:17;;;;;;;4.40;4.10;;;;;;;;;;5091755;28;20695;-65
2021/12/12 12:16:12;;;;;;;4.40;4.10;;;;;;;;;;5103164;28;20203;-64
2021/12/12 12:19:07;;;;;;;4.00;3.70;;;;;;;;;;5093136;28;20675;-64
2021/12/12 12:22:09;;;;;;;4.07;3.87;;;;;;;;;;5097941;28;20684;-65
2021/12/12 12:25:14;;;;;;;4.17;3.97;;;;;;;;;;5104244;28;20205;-64
2021/12/12 12:28:08;;;;;;;3.97;3.77;;;;;;;;;;5098613;28;20209;-65
2021/12/12 12:31:32;;;;;;;4.43;4.17;;;;;;;;;;5095791;28;20211;-64
2021/12/12 12:34:55;;;;;;;3.70;3.50;;;;;;;;;;5102753;28;20205;-64
2021/12/12 12:38:59;;;;;;;3.80;3.60;;;;;;;;;;5054959;28;20351;-64
2021/12/12 12:42:22;;;;;;;4.10;3.87;;;;;;;;;;5097386;28;20221;-64
2021/12/12 12:46:18;;;;;;;4.10;3.83;;;;;;;;;;5099060;28;20234;-65
2021/12/12 12:50:19;;;;;;;3.80;3.60;;;;;;;;;;5099647;28;20339;-64
2021/12/12 12:53:42;;;;;;;3.90;3.70;;;;;;;;;;5097561;28;20227;-65
2021/12/12 12:57:06;;;;;;;4.07;3.87;;;;;;;;;;5097590;28;20685;-64
2021/12/12 13:00:03;;;;;;;4.43;4.13;;;;;;;;;;5105638;28;20210;-65
2021/12/12 13:03:15;;;;;;;4.20;3.90;;;;;;;;;;5096018;28;20297;-66
2021/12/12 13:06:48;;;;;;;3.60;3.40;;;;;;;;;;5100925;28;20271;-64
2021/12/12 13:09:57;;;;;;;4.10;3.90;;;;;;;;;;5095124;28;20578;-65
2021/12/12 13:12:57;;;;;;;3.83;3.60;;;;;;;;;;5099739;28;20221;-64
2021/12/12 13:15:52;;;;;;;3.67;3.47;;;;;;;;;;5103466;28;20689;-64
2021/12/12 13:18:50;;;;;;;3.77;3.27;;;;;;;;;;5105650;28;20291;-64
2021/12/12 13:21:46;;;;;;;3.83;3.53;;;;;;;;;;5098766;28;20321;-64
2021/12/12 13:24:42;;;;;;;3.73;3.43;;;;;;;;;;5103107;28;20285;-64
2021/12/12 13:28:01;;;;;;;3.60;3.40;;;;;;;;;;5103025;28;20211;-64
2021/12/12 13:30:59;;;;;;;3.87;3.60;;;;;;;;;;4899467;28;20236;-66
2021/12/12 13:33:56;;;;;;;3.90;3.70;;;;;;;;;;4875143;28;20588;-67
2021/12/12 13:36:51;;;;;;;3.33;3.13;;;;;;;;;;5037493;28;20243;-64
2021/12/12 13:39:50;;;;;;;3.40;3.20;;;;;;;;;;5046923;28;20898;-65
2021/12/12 13:42:45;;;;;;;3.63;3.43;;;;;;;;;;5025780;28;20282;-64
2021/12/12 13:45:39;;;;;;;3.40;3.20;;;;;;;;;;5043992;28;20667;-64
2021/12/12 13:48:42;;;;;;;3.60;3.40;;;;;;;;;;5031670;28;20212;-64
2021/12/12 13:51:40;;;;;;;3.60;3.40;;;;;;;;;;5045673;28;20243;-64
2021/12/12 13:54:35;;;;;;;3.43;3.23;;;;;;;;;;5049781;28;20203;-65
2021/12/12 13:57:26;;;;;;;3.30;3.10;;;;;;;;;;5051851;28;20301;-64
2021/12/12 14:00:16;;;;;;;3.30;3.10;;;;;;;;;;5047094;28;20292;-64
2021/12/12 14:03:07;;;;;;;3.13;3.03;;;;;;;;;;5031452;28;20342;-64
2021/12/12 14:05:55;;;;;;;3.27;3.07;;;;;;;;;;5042830;28;20261;-64
2021/12/12 14:08:45;;;;;;;3.00;2.80;;;;;;;;;;5049670;28;20219;-64
2021/12/12 14:11:37;;;;;;;2.87;2.77;;;;;;;;;;5045843;28;20704;-64
2021/12/12 14:14:31;;;;;;;2.73;2.63;;;;;;;;;;5047528;28;20205;-64
2021/12/12 14:17:26;;;;;;;2.87;2.77;;;;;;;;;;5034569;28;20209;-64
2021/12/12 14:20:18;;;;;;;2.83;2.73;;;;;;;;;;5047668;28;20644;-64
2021/12/12 14:23:09;;;;;;;2.93;2.80;;;;;;;;;;5058096;28;20622;-64
2021/12/12 14:26:03;;;;;;;3.10;2.90;;;;;;;;;;5041762;28;20732;-64
2021/12/12 14:28:53;;;;;;;3.10;2.90;;;;;;;;;;5049875;28;20213;-64
2021/12/12 14:31:46;;;;;;;3.03;2.70;;;;;;;;;;5049827;28;20258;-64
2021/12/12 14:34:41;;;;;;;3.60;3.40;;;;;;;;;;5050192;28;20545;-64
2021/12/12 14:37:33;;;;;;;3.10;2.90;;;;;;;;;;5050179;28;20354;-64
2021/12/12 14:40:24;;;;;;;2.93;2.73;;;;;;;;;;5049063;28;20212;-64
2021/12/12 14:43:14;;;;;;;3.00;2.80;;;;;;;;;;5050167;28;20236;-64
2021/12/12 14:46:06;;;;;;;2.97;2.77;;;;;;;;;;5051087;28;20762;-66
2021/12/12 14:48:56;;;;;;;3.10;2.90;;;;;;;;;;5049036;28;20208;-64
2021/12/12 14:51:54;;;;;;;3.30;3.00;;;;;;;;;;5044815;28;20277;-64
2021/12/12 14:54:45;;;;;;;2.90;2.80;;;;;;;;;;5048878;28;20287;-64
2021/12/12 14:57:36;;;;;;;3.57;3.30;;;;;;;;;;5051255;28;20579;-64
2021/12/12 15:00:26;;;;;;;3.13;2.93;;;;;;;;;;5035797;28;20206;-64
2021/12/12 15:03:19;;;;;;;3.47;3.27;;;;;;;;;;5046886;28;20298;-64
2021/12/12 15:06:10;;;;;;;3.43;3.23;;;;;;;;;;5049709;28;20200;-65
2021/12/12 15:09:04;;;;;;;3.13;2.93;;;;;;;;;;5049290;28;20266;-64
2021/12/12 15:11:56;;;;;;;3.27;3.07;;;;;;;;;;5044053;28;20697;-64
2021/12/12 15:14:48;;;;;;;3.30;3.10;;;;;;;;;;5064536;28;20205;-64
2021/12/12 15:17:37;;;;;;;3.37;3.17;;;;;;;;;;5047086;28;20226;-64
2021/12/12 15:20:28;;;;;;;5.00;4.70;;;;;;;;;;5046328;28;20291;-64
2021/12/12 15:23:19;;;;;;;4.30;4.00;;;;;;;;;;5034466;28;20302;-64
2021/12/12 15:26:11;;;;;;;4.37;4.10;;;;;;;;;;5034312;28;20355;-65
2021/12/12 15:29:00;;;;;;;4.53;4.23;;;;;;;;;;5044326;28;20291;-64
2021/12/12 15:31:50;;;;;;;4.43;4.13;;;;;;;;;;5027234;28;20244;-64
2021/12/12 15:34:40;;;;;;;4.10;3.90;;;;;;;;;;5010112;28;20315;-65
2021/12/12 15:37:31;;;;;;;4.03;3.83;;;;;;;;;;5010714;28;20268;-64
2021/12/12 15:40:26;;;;;;;4.20;3.90;;;;;;;;;;5017341;28;20288;-64
2021/12/12 15:43:23;;;;;;;4.10;3.80;;;;;;;;;;5030263;28;20252;-64
2021/12/12 15:46:13;;;;;;;3.73;3.53;;;;;;;;;;5030038;28;20287;-64
2021/12/12 15:49:07;;;;;;;3.60;3.40;;;;;;;;;;5020499;28;20254;-64
2021/12/12 15:52:01;;;;;;;3.90;3.70;;;;;;;;;;5024758;28;20288;-64
2021/12/12 15:55:37;;;;;;;3.80;3.60;;;;;;;;;;5008257;28;20670;-66
2021/12/12 15:58:29;;;;;;;3.70;3.50;;;;;;;;;;5024177;28;20232;-64
2021/12/12 16:01:19;;;;;;;3.63;3.43;;;;;;;;;;5021715;28;20318;-64
2021/12/12 16:04:08;;;;;;;4.00;3.70;;;;;;;;;;5026597;28;20232;-64
2021/12/12 16:06:59;;;;;;;3.77;3.50;;;;;;;;;;5024505;28;20219;-64
2021/12/12 16:09:51;;;;;;;3.60;3.40;;;;;;;;;;5025367;28;20263;-64
2021/12/12 16:12:43;;;;;;;4.00;3.80;;;;;;;;;;5015912;28;20752;-65
2021/12/12 16:15:38;;;;;;;3.87;3.60;;;;;;;;;;5026405;28;20244;-64
2021/12/12 16:18:29;;;;;;;4.20;3.90;;;;;;;;;;5024243;28;20287;-64
2021/12/12 16:21:19;;;;;;;4.00;3.60;;;;;;;;;;5035922;28;20271;-64
2021/12/12 16:24:07;;;;;;;3.57;3.37;;;;;;;;;;5021367;28;20251;-64
2021/12/12 16:26:55;;;;;;;4.00;3.70;;;;;;;;;;5017251;28;20205;-64
2021/12/12 16:29:48;;;;;;;3.47;3.23;;;;;;;;;;5029016;28;20238;-64
2021/12/12 16:32:41;;;;;;;3.60;3.40;;;;;;;;;;5035066;28;20238;-64
2021/12/12 16:35:33;;;;;;;3.37;3.17;;;;;;;;;;5026766;28;20688;-64
2021/12/12 16:38:24;;;;;;;4.07;3.77;;;;;;;;;;5027562;28;20719;-64
2021/12/12 16:41:14;;;;;;;3.50;3.30;;;;;;;;;;5035272;28;20215;-64
2021/12/12 16:44:02;;;;;;;3.30;3.10;;;;;;;;;;5032646;28;20285;-64
2021/12/12 16:46:49;;;;;;;3.00;2.90;;;;;;;;;;5027266;28;20699;-64
2021/12/12 16:49:39;;;;;;;3.27;3.07;;;;;;;;;;5028206;28;20283;-66
2021/12/12 16:52:31;;;;;;;3.20;3.00;;;;;;;;;;5029005;28;20215;-64
2021/12/12 16:55:21;;;;;;;3.43;3.23;;;;;;;;;;5026180;28;20217;-64
2021/12/12 16:58:14;;;;;;;3.23;3.03;;;;;;;;;;5027204;28;20204;-64
2021/12/12 17:01:05;;;;;;;2.93;2.83;;;;;;;;;;5027094;28;20208;-64
2021/12/12 17:03:56;;;;;;;3.33;3.13;;;;;;;;;;5024977;28;20721;-65
2021/12/12 17:06:49;;;;;;;3.03;2.83;;;;;;;;;;5030688;28;20300;-64
2021/12/12 17:09:39;;;;;;;3.13;2.93;;;;;;;;;;5026913;28;20707;-65
2021/12/12 17:12:30;;;;;;;3.00;2.73;;;;;;;;;;5027442;28;20288;-64
2021/12/12 17:15:20;;;;;;;3.43;3.13;;;;;;;;;;5027207;28;20208;-65
2021/12/12 17:18:12;;;;;;;3.57;3.27;;;;;;;;;;5024162;28;20669;-64
2021/12/12 17:21:02;;;;;;;3.20;3.00;;;;;;;;;;5013942;28;20245;-64
2021/12/12 17:23:58;;;;;;;3.13;2.93;;;;;;;;;;5044859;28;20215;-64
2021/12/12 17:26:45;;;;;;;3.70;3.40;;;;;;;;;;5046491;28;20308;-65
2021/12/12 17:29:36;;;;;;;3.60;3.30;;;;;;;;;;5050026;28;20215;-64